sensor_id;sensor_type;location;lat;lon;timestamp;pressure;altitude;pressure_sealevel;temperature;humidity
57628;BME280;43451;49.060;10.616;2024-01-06T00:00:32;95545.25;;;3.51;100.00
57628;BME280;43451;49.060;10.616;2024-01-06T00:02:58;95550.59;;;3.47;100.00
57628;BME280;43451;49.060;10.616;2024-01-06T00:05:26;95557.50;;;3.48;100.00
57628;BME280;43451;49.060;10.616;2024-01-06T00:07:51;95554.78;;;3.41;100.00
57628;BME280;43451;49.060;10.616;2024-01-06T00:10:17;95555.13;;;3.39;100.00
57628;BME280;43451;49.060;10.616;2024-01-06T00:12:43;95552.84;;;3.38;100.00
57628;BME280;43451;49.060;10.616;2024-01-06T00:15:09;95550.56;;;3.40;100.00
57628;BME280;43451;49.060;10.616;2024-01-06T00:17:38;95560.50;;;3.39;100.00
57628;BME280;43451;49.060;10.616;2024-01-06T00:20:05;95557.44;;;3.37;100.00
57628;BME280;43451;49.060;10.616;2024-01-06T00:22:31;95557.47;;;3.44;100.00
57628;BME280;43451;49.060;10.616;2024-01-06T00:24:56;95560.13;;;3.41;100.00
57628;BME280;43451;49.060;10.616;2024-01-06T00:27:22;95564.38;;;3.45;100.00
57628;BME280;43451;49.060;10.616;2024-01-06T00:29:47;95559.88;;;3.60;100.00
57628;BME280;43451;49.060;10.616;2024-01-06T00:32:13;95559.13;;;3.63;100.00
57628;BME280;43451;49.060;10.616;2024-01-06T00:34:38;95555.97;;;3.51;100.00
57628;BME280;43451;49.060;10.616;2024-01-06T00:37:04;95560.59;;;3.54;100.00
57628;BME280;43451;49.060;10.616;2024-01-06T00:39:29;95571.31;;;3.50;100.00
57628;BME280;43451;49.060;10.616;2024-01-06T00:41:55;95567.50;;;3.51;100.00
57628;BME280;43451;49.060;10.616;2024-01-06T00:44:20;95567.50;;;3.51;100.00
57628;BME280;43451;49.060;10.616;2024-01-06T00:46:46;95575.91;;;3.46;100.00
57628;BME280;43451;49.060;10.616;2024-01-06T00:49:11;95568.19;;;3.41;100.00
57628;BME280;43451;49.060;10.616;2024-01-06T00:51:37;95578.53;;;3.39;100.00
57628;BME280;43451;49.060;10.616;2024-01-06T00:54:02;95572.03;;;3.40;100.00
57628;BME280;43451;49.060;10.616;2024-01-06T00:56:28;95571.28;;;3.43;100.00
57628;BME280;43451;49.060;10.616;2024-01-06T00:58:54;95579.78;;;3.52;100.00
57628;BME280;43451;49.060;10.616;2024-01-06T01:01:19;95580.56;;;3.53;100.00
57628;BME280;43451;49.060;10.616;2024-01-06T01:03:45;95575.16;;;3.49;100.00
57628;BME280;43451;49.060;10.616;2024-01-06T01:06:11;95574.38;;;3.48;100.00
57628;BME280;43451;49.060;10.616;2024-01-06T01:08:36;95594.38;;;3.55;100.00
57628;BME280;43451;49.060;10.616;2024-01-06T01:11:02;95585.53;;;3.51;100.00
57628;BME280;43451;49.060;10.616;2024-01-06T01:13:28;95581.69;;;3.52;100.00
57628;BME280;43451;49.060;10.616;2024-01-06T01:15:53;95586.28;;;3.51;100.00
57628;BME280;43451;49.060;10.616;2024-01-06T01:18:18;95584.75;;;3.50;100.00
57628;BME280;43451;49.060;10.616;2024-01-06T01:20:44;95590.53;;;3.52;100.00
57628;BME280;43451;49.060;10.616;2024-01-06T01:23:10;95585.94;;;3.53;100.00
57628;BME280;43451;49.060;10.616;2024-01-06T01:25:35;95593.22;;;3.52;100.00
57628;BME280;43451;49.060;10.616;2024-01-06T01:28:00;95587.47;;;3.54;100.00
57628;BME280;43451;49.060;10.616;2024-01-06T01:30:27;95585.91;;;3.49;100.00
57628;BME280;43451;49.060;10.616;2024-01-06T01:32:52;95590.53;;;3.52;100.00
57628;BME280;43451;49.060;10.616;2024-01-06T01:35:18;95593.56;;;3.47;100.00
57628;BME280;43451;49.060;10.616;2024-01-06T01:37:43;95590.41;;;3.38;100.00
57628;BME280;43451;49.060;10.616;2024-01-06T01:40:09;95598.06;;;3.36;100.00
57628;BME280;43451;49.060;10.616;2024-01-06T01:42:35;95594.28;;;3.40;100.00
57628;BME280;43451;49.060;10.616;2024-01-06T01:45:00;95596.53;;;3.35;100.00
57628;BME280;43451;49.060;10.616;2024-01-06T01:47:26;95595.00;;;3.34;100.00
57628;BME280;43451;49.060;10.616;2024-01-06T01:49:53;95586.13;;;3.30;100.00
57628;BME280;43451;49.060;10.616;2024-01-06T01:52:20;95587.72;;;3.34;100.00
57628;BME280;43451;49.060;10.616;2024-01-06T01:54:46;95594.97;;;3.30;100.00
57628;BME280;43451;49.060;10.616;2024-01-06T01:57:13;95593.78;;;3.28;100.00
57628;BME280;43451;49.060;10.616;2024-01-06T01:59:39;95586.50;;;3.28;100.00
57628;BME280;43451;49.060;10.616;2024-01-06T02:02:05;95583.44;;;3.30;100.00
57628;BME280;43451;49.060;10.616;2024-01-06T02:04:31;95585.75;;;3.28;100.00
57628;BME280;43451;49.060;10.616;2024-01-06T02:06:57;95571.19;;;3.32;100.00
57628;BME280;43451;49.060;10.616;2024-01-06T02:09:23;95578.88;;;3.30;100.00
57628;BME280;43451;49.060;10.616;2024-01-06T02:11:52;95581.91;;;3.29;100.00
57628;BME280;43451;49.060;10.616;2024-01-06T02:14:18;95588.00;;;3.25;100.00
57628;BME280;43451;49.060;10.616;2024-01-06T02:16:43;95575.78;;;3.32;100.00
57628;BME280;43451;49.060;10.616;2024-01-06T02:19:10;95588.47;;;3.35;100.00
57628;BME280;43451;49.060;10.616;2024-01-06T02:21:41;95576.94;;;3.31;100.00
57628;BME280;43451;49.060;10.616;2024-01-06T02:24:07;95595.00;;;3.34;100.00
57628;BME280;43451;49.060;10.616;2024-01-06T02:26:33;95593.38;;;3.25;100.00
57628;BME280;43451;49.060;10.616;2024-01-06T02:28:58;95593.75;;;3.20;100.00
57628;BME280;43451;49.060;10.616;2024-01-06T02:31:24;95590.25;;;3.16;100.00
57628;BME280;43451;49.060;10.616;2024-01-06T02:33:49;95603.28;;;3.14;100.00
57628;BME280;43451;49.060;10.616;2024-01-06T02:36:14;95607.41;;;3.05;100.00
57628;BME280;43451;49.060;10.616;2024-01-06T02:38:40;95608.56;;;3.07;100.00
57628;BME280;43451;49.060;10.616;2024-01-06T02:41:05;95605.53;;;3.12;100.00
57628;BME280;43451;49.060;10.616;2024-01-06T02:43:31;95606.59;;;3.04;100.00
57628;BME280;43451;49.060;10.616;2024-01-06T02:45:56;95609.69;;;3.02;100.00
57628;BME280;43451;49.060;10.616;2024-01-06T02:48:21;95604.72;;;3.05;100.00
57628;BME280;43451;49.060;10.616;2024-01-06T02:50:47;95611.66;;;3.09;100.00
57628;BME280;43451;49.060;10.616;2024-01-06T02:53:12;95612.84;;;3.15;100.00
57628;BME280;43451;49.060;10.616;2024-01-06T02:55:39;95610.97;;;3.19;100.00
57628;BME280;43451;49.060;10.616;2024-01-06T02:58:04;95606.38;;;3.20;100.00
57628;BME280;43451;49.060;10.616;2024-01-06T03:00:30;95616.75;;;3.21;100.00
57628;BME280;43451;49.060;10.616;2024-01-06T03:02:55;95618.28;;;3.22;100.00
57628;BME280;43451;49.060;10.616;2024-01-06T03:05:21;95608.69;;;3.21;100.00
57628;BME280;43451;49.060;10.616;2024-01-06T03:07:47;95619.38;;;3.14;100.00
57628;BME280;43451;49.060;10.616;2024-01-06T03:10:12;95624.00;;;3.17;100.00
57628;BME280;43451;49.060;10.616;2024-01-06T03:15:05;95618.91;;;3.05;100.00
57628;BME280;43451;49.060;10.616;2024-01-06T03:17:31;95616.22;;;3.05;100.00
57628;BME280;43451;49.060;10.616;2024-01-06T03:19:57;95625.03;;;3.06;100.00
57628;BME280;43451;49.060;10.616;2024-01-06T03:22:23;95626.94;;;3.05;100.00
57628;BME280;43451;49.060;10.616;2024-01-06T03:24:48;95625.03;;;3.06;100.00
57628;BME280;43451;49.060;10.616;2024-01-06T03:27:14;95626.13;;;3.01;100.00
57628;BME280;43451;49.060;10.616;2024-01-06T03:29:39;95624.53;;;2.93;100.00
57628;BME280;43451;49.060;10.616;2024-01-06T03:32:05;95629.47;;;2.91;100.00
57628;BME280;43451;49.060;10.616;2024-01-06T03:34:31;95636.00;;;2.90;100.00
57628;BME280;43451;49.060;10.616;2024-01-06T03:36:56;95630.59;;;2.86;100.00
57628;BME280;43451;49.060;10.616;2024-01-06T03:39:22;95637.53;;;2.91;100.00
57628;BME280;43451;49.060;10.616;2024-01-06T03:41:48;95630.66;;;2.93;100.00
57628;BME280;43451;49.060;10.616;2024-01-06T03:44:14;95631.44;;;2.94;100.00
57628;BME280;43451;49.060;10.616;2024-01-06T03:46:40;95644.50;;;2.95;100.00
57628;BME280;43451;49.060;10.616;2024-01-06T03:49:05;95640.28;;;2.98;100.00
57628;BME280;43451;49.060;10.616;2024-01-06T03:51:31;95641.00;;;2.95;100.00
57628;BME280;43451;49.060;10.616;2024-01-06T03:53:56;95639.47;;;2.94;100.00
57628;BME280;43451;49.060;10.616;2024-01-06T03:56:22;95638.31;;;2.95;100.00
57628;BME280;43451;49.060;10.616;2024-01-06T03:58:47;95649.06;;;2.95;100.00
57628;BME280;43451;49.060;10.616;2024-01-06T04:01:13;95645.25;;;2.96;100.00
57628;BME280;43451;49.060;10.616;2024-01-06T04:03:39;95646.28;;;2.84;100.00
57628;BME280;43451;49.060;10.616;2024-01-06T04:06:07;95645.50;;;2.84;100.00
57628;BME280;43451;49.060;10.616;2024-01-06T04:08:33;95658.13;;;2.79;100.00
57628;BME280;43451;49.060;10.616;2024-01-06T04:10:58;95648.13;;;2.76;100.00
57628;BME280;43451;49.060;10.616;2024-01-06T04:13:23;95647.28;;;2.72;100.00
57628;BME280;43451;49.060;10.616;2024-01-06T04:15:50;95654.19;;;2.70;100.00
57628;BME280;43451;49.060;10.616;2024-01-06T04:18:16;95649.66;;;2.77;100.00
57628;BME280;43451;49.060;10.616;2024-01-06T04:20:41;95645.75;;;2.71;100.00
57628;BME280;43451;49.060;10.616;2024-01-06T04:23:07;95643.97;;;2.83;100.00
57628;BME280;43451;49.060;10.616;2024-01-06T04:25:32;95642.78;;;2.80;100.00
57628;BME280;43451;49.060;10.616;2024-01-06T04:27:58;95641.31;;;2.86;100.00
57628;BME280;43451;49.060;10.616;2024-01-06T04:30:23;95635.13;;;2.82;100.00
57628;BME280;43451;49.060;10.616;2024-01-06T04:32:51;95633.63;;;2.85;100.00
57628;BME280;43451;49.060;10.616;2024-01-06T04:35:17;95635.25;;;2.93;100.00
57628;BME280;43451;49.060;10.616;2024-01-06T04:37:43;95637.06;;;2.82;100.00
57628;BME280;43451;49.060;10.616;2024-01-06T04:40:09;95640.56;;;2.86;100.00
57628;BME280;43451;49.060;10.616;2024-01-06T04:42:35;95638.25;;;2.88;100.00
57628;BME280;43451;49.060;10.616;2024-01-06T04:45:01;95642.03;;;2.79;100.00
57628;BME280;43451;49.060;10.616;2024-01-06T04:47:26;95648.97;;;2.84;100.00
57628;BME280;43451;49.060;10.616;2024-01-06T04:49:53;95642.78;;;2.80;100.00
57628;BME280;43451;49.060;10.616;2024-01-06T04:52:18;95645.91;;;2.86;100.00
57628;BME280;43451;49.060;10.616;2024-01-06T04:54:44;95645.19;;;2.89;100.00
57628;BME280;43451;49.060;10.616;2024-01-06T04:57:09;95644.38;;;2.85;100.00
57628;BME280;43451;49.060;10.616;2024-01-06T04:59:35;95651.59;;;2.81;100.00
57628;BME280;43451;49.060;10.616;2024-01-06T05:02:01;95651.97;;;2.79;100.00
57628;BME280;43451;49.060;10.616;2024-01-06T05:04:26;95653.50;;;2.76;100.00
57628;BME280;43451;49.060;10.616;2024-01-06T05:06:52;95660.31;;;2.70;100.00
57628;BME280;43451;49.060;10.616;2024-01-06T05:09:18;95654.59;;;2.75;100.00
57628;BME280;43451;49.060;10.616;2024-01-06T05:11:44;95657.22;;;2.68;100.00
57628;BME280;43451;49.060;10.616;2024-01-06T05:14:10;95662.50;;;2.61;100.00
57628;BME280;43451;49.060;10.616;2024-01-06T05:16:35;95662.78;;;2.52;100.00
57628;BME280;43451;49.060;10.616;2024-01-06T05:19:01;95665.03;;;2.50;100.00
57628;BME280;43451;49.060;10.616;2024-01-06T05:21:26;95667.69;;;2.47;100.00
57628;BME280;43451;49.060;10.616;2024-01-06T05:23:52;95672.44;;;2.57;100.00
57628;BME280;43451;49.060;10.616;2024-01-06T05:26:17;95669.78;;;2.61;100.00
57628;BME280;43451;49.060;10.616;2024-01-06T05:28:43;95669.84;;;2.68;100.00
57628;BME280;43451;49.060;10.616;2024-01-06T05:31:08;95679.41;;;2.65;100.00
57628;BME280;43451;49.060;10.616;2024-01-06T05:33:34;95672.16;;;2.69;100.00
57628;BME280;43451;49.060;10.616;2024-01-06T05:35:59;95673.72;;;2.70;100.00
57628;BME280;43451;49.060;10.616;2024-01-06T05:38:25;95673.88;;;2.85;100.00
57628;BME280;43451;49.060;10.616;2024-01-06T05:40:50;95673.59;;;2.93;100.00
57628;BME280;43451;49.060;10.616;2024-01-06T05:43:16;95682.56;;;2.74;100.00
57628;BME280;43451;49.060;10.616;2024-01-06T05:45:41;95688.69;;;2.75;100.00
57628;BME280;43451;49.060;10.616;2024-01-06T05:48:10;95688.69;;;2.75;100.00
57628;BME280;43451;49.060;10.616;2024-01-06T05:50:38;95695.63;;;2.76;100.00
57628;BME280;43451;49.060;10.616;2024-01-06T05:53:04;95699.13;;;2.80;100.00
57628;BME280;43451;49.060;10.616;2024-01-06T05:55:30;95705.72;;;2.90;100.00
57628;BME280;43451;49.060;10.616;2024-01-06T05:57:55;95702.66;;;3.25;100.00
57628;BME280;43451;49.060;10.616;2024-01-06T06:00:21;95705.88;;;3.04;100.00
57628;BME280;43451;49.060;10.616;2024-01-06T06:02:53;95713.44;;;2.95;100.00
57628;BME280;43451;49.060;10.616;2024-01-06T06:05:23;95718.25;;;3.12;100.00
57628;BME280;43451;49.060;10.616;2024-01-06T06:07:49;95727.75;;;3.06;100.00
57628;BME280;43451;49.060;10.616;2024-01-06T06:10:14;95724.41;;;3.16;100.00
57628;BME280;43451;49.060;10.616;2024-01-06T06:12:41;95729.03;;;3.19;100.00
57628;BME280;43451;49.060;10.616;2024-01-06T06:15:07;95731.38;;;3.21;100.00
57628;BME280;43451;49.060;10.616;2024-01-06T06:17:33;95730.13;;;3.11;100.00
57628;BME280;43451;49.060;10.616;2024-01-06T06:19:59;95733.69;;;3.22;100.00
57628;BME280;43451;49.060;10.616;2024-01-06T06:22:25;95725.47;;;3.45;100.00
57628;BME280;43451;49.060;10.616;2024-01-06T06:24:58;95730.22;;;3.59;100.00
57628;BME280;43451;49.060;10.616;2024-01-06T06:27:24;95733.88;;;3.40;100.00
57628;BME280;43451;49.060;10.616;2024-01-06T06:29:49;95741.56;;;3.45;100.00
57628;BME280;43451;49.060;10.616;2024-01-06T06:32:15;95732.28;;;3.36;100.00
57628;BME280;43451;49.060;10.616;2024-01-06T06:34:41;95737.72;;;3.43;100.00
57628;BME280;43451;49.060;10.616;2024-01-06T06:37:07;95731.50;;;3.35;100.00
57628;BME280;43451;49.060;10.616;2024-01-06T06:39:33;95730.88;;;3.49;100.00
57628;BME280;43451;49.060;10.616;2024-01-06T06:41:59;95732.41;;;3.50;100.00
57628;BME280;43451;49.060;10.616;2024-01-06T06:44:25;95745.44;;;3.48;100.00
57628;BME280;43451;49.060;10.616;2024-01-06T06:46:51;95737.38;;;3.48;100.00
57628;BME280;43451;49.060;10.616;2024-01-06T06:49:16;95742.47;;;3.60;100.00
57628;BME280;43451;49.060;10.616;2024-01-06T06:51:42;95746.03;;;3.68;100.00
57628;BME280;43451;49.060;10.616;2024-01-06T06:54:12;95754.84;;;3.68;100.00
57628;BME280;43451;49.060;10.616;2024-01-06T06:56:38;95748.94;;;3.52;100.00
57628;BME280;43451;49.060;10.616;2024-01-06T06:59:03;95746.91;;;3.42;100.00
57628;BME280;43451;49.060;10.616;2024-01-06T07:01:30;95767.63;;;3.41;100.00
57628;BME280;43451;49.060;10.616;2024-01-06T07:03:56;95774.13;;;3.40;100.00
57628;BME280;43451;49.060;10.616;2024-01-06T07:06:21;95778.84;;;3.51;100.00
57628;BME280;43451;49.060;10.616;2024-01-06T07:08:47;95773.69;;;3.35;100.00
57628;BME280;43451;49.060;10.616;2024-01-06T07:11:12;95774.41;;;3.32;100.00
57628;BME280;43451;49.060;10.616;2024-01-06T07:13:40;95778.22;;;3.27;100.00
57628;BME280;43451;49.060;10.616;2024-01-06T07:16:06;95780.53;;;3.29;100.00
57628;BME280;43451;49.060;10.616;2024-01-06T07:18:32;95786.25;;;3.27;100.00
57628;BME280;43451;49.060;10.616;2024-01-06T07:20:58;95782.06;;;3.30;100.00
57628;BME280;43451;49.060;10.616;2024-01-06T07:23:24;95779.06;;;3.35;100.00
57628;BME280;43451;49.060;10.616;2024-01-06T07:25:49;95778.22;;;3.27;100.00
57628;BME280;43451;49.060;10.616;2024-01-06T07:28:14;95790.06;;;3.26;100.00
57628;BME280;43451;49.060;10.616;2024-01-06T07:30:40;95787.34;;;3.22;100.00
57628;BME280;43451;49.060;10.616;2024-01-06T07:33:06;95793.88;;;3.21;100.00
57628;BME280;43451;49.060;10.616;2024-01-06T07:35:31;95794.13;;;3.13;100.00
57628;BME280;43451;49.060;10.616;2024-01-06T07:37:57;95801.84;;;3.14;100.00
57628;BME280;43451;49.060;10.616;2024-01-06T07:40:22;95803.72;;;3.14;100.00
57628;BME280;43451;49.060;10.616;2024-01-06T07:42:50;95797.97;;;3.12;100.00
57628;BME280;43451;49.060;10.616;2024-01-06T07:45:16;95816.34;;;3.10;100.00
57628;BME280;43451;49.060;10.616;2024-01-06T07:47:42;95800.38;;;3.20;100.00
57628;BME280;43451;49.060;10.616;2024-01-06T07:50:08;95800.69;;;3.15;100.00
57628;BME280;43451;49.060;10.616;2024-01-06T07:52:34;95794.41;;;3.04;100.00
57628;BME280;43451;49.060;10.616;2024-01-06T07:55:00;95805.97;;;3.08;100.00
57628;BME280;43451;49.060;10.616;2024-01-06T07:57:25;95812.06;;;3.05;100.00
57628;BME280;43451;49.060;10.616;2024-01-06T07:59:51;95811.69;;;3.07;100.00
57628;BME280;43451;49.060;10.616;2024-01-06T08:02:17;95820.97;;;3.13;100.00
57628;BME280;43451;49.060;10.616;2024-01-06T08:04:42;95822.50;;;3.14;100.00
57628;BME280;43451;49.060;10.616;2024-01-06T08:07:08;95820.28;;;3.19;100.00
57628;BME280;43451;49.060;10.616;2024-01-06T08:09:34;95808.81;;;3.22;100.00
57628;BME280;43451;49.060;10.616;2024-01-06T08:11:59;95811.50;;;3.22;100.00
57628;BME280;43451;49.060;10.616;2024-01-06T08:14:25;95818.03;;;3.21;100.00
57628;BME280;43451;49.060;10.616;2024-01-06T08:16:51;95814.88;;;3.16;100.00
57628;BME280;43451;49.060;10.616;2024-01-06T08:19:16;95822.63;;;3.21;100.00
57628;BME280;43451;49.060;10.616;2024-01-06T08:21:42;95815.72;;;3.23;100.00
57628;BME280;43451;49.060;10.616;2024-01-06T08:24:07;95816.56;;;3.28;100.00
57628;BME280;43451;49.060;10.616;2024-01-06T08:26:33;95812.72;;;3.29;100.00
57628;BME280;43451;49.060;10.616;2024-01-06T08:28:58;95816.59;;;3.31;100.00
57628;BME280;43451;49.060;10.616;2024-01-06T08:31:24;95819.31;;;3.35;100.00
57628;BME280;43451;49.060;10.616;2024-01-06T08:33:50;95824.28;;;3.33;100.00
57628;BME280;43451;49.060;10.616;2024-01-06T08:36:16;95831.59;;;3.36;100.00
57628;BME280;43451;49.060;10.616;2024-01-06T08:38:42;95832.31;;;3.66;100.00
57628;BME280;43451;49.060;10.616;2024-01-06T08:41:07;95829.94;;;3.61;100.00
57628;BME280;43451;49.060;10.616;2024-01-06T08:43:33;95834.59;;;3.64;100.00
57628;BME280;43451;49.060;10.616;2024-01-06T08:45:58;95826.22;;;3.69;100.00
57628;BME280;43451;49.060;10.616;2024-01-06T08:48:24;95835.31;;;3.61;100.00
57628;BME280;43451;49.060;10.616;2024-01-06T08:50:50;95832.28;;;3.63;100.00
57628;BME280;43451;49.060;10.616;2024-01-06T08:53:16;95840.09;;;3.75;100.00
57628;BME280;43451;49.060;10.616;2024-01-06T08:55:42;95835.59;;;3.90;100.00
57628;BME280;43451;49.060;10.616;2024-01-06T08:58:07;95835.19;;;3.84;100.00
57628;BME280;43451;49.060;10.616;2024-01-06T09:00:33;95838.66;;;3.85;100.00
57628;BME280;43451;49.060;10.616;2024-01-06T09:02:58;95842.56;;;3.91;100.00
57628;BME280;43451;49.060;10.616;2024-01-06T09:05:25;95844.84;;;3.92;100.00
57628;BME280;43451;49.060;10.616;2024-01-06T09:07:50;95843.34;;;3.95;100.00
57628;BME280;43451;49.060;10.616;2024-01-06T09:10:17;95845.75;;;4.07;100.00
57628;BME280;43451;49.060;10.616;2024-01-06T09:12:42;95842.81;;;4.19;100.00
57628;BME280;43451;49.060;10.616;2024-01-06T09:15:08;95838.22;;;4.24;100.00
57628;BME280;43451;49.060;10.616;2024-01-06T09:17:34;95840.59;;;4.32;100.00
57628;BME280;43451;49.060;10.616;2024-01-06T09:20:00;95844.34;;;4.21;100.00
57628;BME280;43451;49.060;10.616;2024-01-06T09:22:26;95846.63;;;4.18;100.00
57628;BME280;43451;49.060;10.616;2024-01-06T09:24:51;95848.16;;;4.16;100.00
57628;BME280;43451;49.060;10.616;2024-01-06T09:27:18;95851.22;;;4.18;100.00
57628;BME280;43451;49.060;10.616;2024-01-06T09:29:43;95851.66;;;4.24;100.00
57628;BME280;43451;49.060;10.616;2024-01-06T09:32:09;95854.41;;;4.31;100.00
57628;BME280;43451;49.060;10.616;2024-01-06T09:34:34;95862.88;;;4.33;100.00
57628;BME280;43451;49.060;10.616;2024-01-06T09:37:00;95867.84;;;4.31;100.00
57628;BME280;43451;49.060;10.616;2024-01-06T09:39:25;95872.09;;;4.32;100.00
57628;BME280;43451;49.060;10.616;2024-01-06T09:41:51;95872.16;;;4.39;100.00
57628;BME280;43451;49.060;10.616;2024-01-06T09:44:17;95877.53;;;4.39;100.00
57628;BME280;43451;49.060;10.616;2024-01-06T09:46:44;95880.63;;;4.41;100.00
57628;BME280;43451;49.060;10.616;2024-01-06T09:49:10;95883.69;;;4.43;100.00
57628;BME280;43451;49.060;10.616;2024-01-06T09:51:37;95879.09;;;4.43;100.00
57628;BME280;43451;49.060;10.616;2024-01-06T09:54:08;95878.84;;;4.59;100.00
57628;BME280;43451;49.060;10.616;2024-01-06T09:56:34;95883.41;;;4.55;100.00
57628;BME280;43451;49.060;10.616;2024-01-06T09:59:00;95877.25;;;4.51;100.00
57628;BME280;43451;49.060;10.616;2024-01-06T10:01:25;95881.78;;;4.43;100.00
57628;BME280;43451;49.060;10.616;2024-01-06T10:03:51;95884.16;;;4.52;100.00
57628;BME280;43451;49.060;10.616;2024-01-06T10:06:18;95891.06;;;4.53;100.00
57628;BME280;43451;49.060;10.616;2024-01-06T10:08:44;95896.78;;;4.45;100.00
57628;BME280;43451;49.060;10.616;2024-01-06T10:11:10;95890.22;;;4.42;100.00
57628;BME280;43451;49.060;10.616;2024-01-06T10:13:36;95893.03;;;4.56;100.00
57628;BME280;43451;49.060;10.616;2024-01-06T10:16:04;95888.06;;;4.58;100.00
57628;BME280;43451;49.060;10.616;2024-01-06T10:18:30;95891.56;;;4.66;100.00
57628;BME280;43451;49.060;10.616;2024-01-06T10:20:57;95885.03;;;4.63;100.00
57628;BME280;43451;49.060;10.616;2024-01-06T10:23:23;95872.31;;;4.60;100.00
57628;BME280;43451;49.060;10.616;2024-01-06T10:25:58;95879.19;;;4.54;100.00
57628;BME280;43451;49.060;10.616;2024-01-06T10:28:27;95893.22;;;4.81;100.00
57628;BME280;43451;49.060;10.616;2024-01-06T10:30:54;95883.91;;;4.72;100.00
57628;BME280;43451;49.060;10.616;2024-01-06T10:33:20;95886.66;;;4.79;100.00
57628;BME280;43451;49.060;10.616;2024-01-06T10:35:47;95881.66;;;4.74;100.00
57628;BME280;43451;49.060;10.616;2024-01-06T10:38:13;95870.09;;;4.70;100.00
57628;BME280;43451;49.060;10.616;2024-01-06T10:40:39;95875.03;;;4.60;100.00
57628;BME280;43451;49.060;10.616;2024-01-06T10:43:05;95882.66;;;4.55;100.00
57628;BME280;43451;49.060;10.616;2024-01-06T10:45:31;95878.91;;;4.67;100.00
57628;BME280;43451;49.060;10.616;2024-01-06T10:47:57;95875.34;;;4.55;100.00
57628;BME280;43451;49.060;10.616;2024-01-06T10:50:23;95871.06;;;4.47;100.00
57628;BME280;43451;49.060;10.616;2024-01-06T10:52:49;95869.56;;;4.53;100.00
57628;BME280;43451;49.060;10.616;2024-01-06T10:55:15;95872.34;;;4.64;100.00
57628;BME280;43451;49.060;10.616;2024-01-06T10:57:46;95870.13;;;4.77;100.00
57628;BME280;43451;49.060;10.616;2024-01-06T11:00:12;95873.19;;;4.79;100.00
57628;BME280;43451;49.060;10.616;2024-01-06T11:02:39;95875.53;;;4.80;100.00
57628;BME280;43451;49.060;10.616;2024-01-06T11:05:05;95871.66;;;4.78;100.00
57628;BME280;43451;49.060;10.616;2024-01-06T11:07:36;95872.41;;;4.71;100.00
57628;BME280;43451;49.060;10.616;2024-01-06T11:10:15;95880.91;;;4.77;100.00
57628;BME280;43451;49.060;10.616;2024-01-06T11:12:44;95874.06;;;4.90;100.00
57628;BME280;43451;49.060;10.616;2024-01-06T11:15:43;95874.75;;;4.80;100.00
57628;BME280;43451;49.060;10.616;2024-01-06T11:18:09;95873.91;;;4.69;100.00
57628;BME280;43451;49.060;10.616;2024-01-06T11:20:35;95874.59;;;4.58;100.00
57628;BME280;43451;49.060;10.616;2024-01-06T11:23:19;95864.72;;;4.70;100.00
57628;BME280;43451;49.060;10.616;2024-01-06T11:25:48;95875.56;;;4.84;100.00
57628;BME280;43451;49.060;10.616;2024-01-06T11:28:16;95882.53;;;4.88;100.00
57628;BME280;43451;49.060;10.616;2024-01-06T11:30:42;95873.31;;;4.93;100.00
57628;BME280;43451;49.060;10.616;2024-01-06T11:33:08;95871.75;;;4.88;100.00
57628;BME280;43451;49.060;10.616;2024-01-06T11:35:37;95872.06;;;4.80;100.00
57628;BME280;43451;49.060;10.616;2024-01-06T11:38:02;95863.97;;;4.76;100.00
57628;BME280;43451;49.060;10.616;2024-01-06T11:40:34;95857.06;;;4.79;100.00
57628;BME280;43451;49.060;10.616;2024-01-06T11:43:06;95860.53;;;4.79;100.00
57628;BME280;43451;49.060;10.616;2024-01-06T11:45:36;95852.47;;;4.76;100.00
57628;BME280;43451;49.060;10.616;2024-01-06T11:48:03;95853.28;;;4.91;100.00
57628;BME280;43451;49.060;10.616;2024-01-06T11:50:34;95844.13;;;4.95;100.00
57628;BME280;43451;49.060;10.616;2024-01-06T11:53:01;95847.19;;;5.01;100.00
57628;BME280;43451;49.060;10.616;2024-01-06T11:55:26;95846.09;;;5.05;100.00
57628;BME280;43451;49.060;10.616;2024-01-06T11:57:58;95845.66;;;4.96;100.00
57628;BME280;43451;49.060;10.616;2024-01-06T12:00:32;95850.19;;;4.85;100.00
57628;BME280;43451;49.060;10.616;2024-01-06T12:02:58;95841.31;;;4.81;100.00
57628;BME280;43451;49.060;10.616;2024-01-06T12:05:25;95839.38;;;4.78;100.00
57628;BME280;43451;49.060;10.616;2024-01-06T12:07:59;95847.78;;;4.69;100.00
57628;BME280;43451;49.060;10.616;2024-01-06T12:10:27;95844.75;;;4.78;100.00
57628;BME280;43451;49.060;10.616;2024-01-06T12:12:58;95833.28;;;4.84;100.00
57628;BME280;43451;49.060;10.616;2024-01-06T12:15:24;95835.22;;;4.91;100.00
57628;BME280;43451;49.060;10.616;2024-01-06T12:17:50;95838.63;;;4.81;100.00
57628;BME280;43451;49.060;10.616;2024-01-06T12:20:15;95828.19;;;4.72;100.00
57628;BME280;43451;49.060;10.616;2024-01-06T12:22:41;95838.56;;;4.67;100.00
57628;BME280;43451;49.060;10.616;2024-01-06T12:25:09;95830.16;;;4.79;100.00
57628;BME280;43451;49.060;10.616;2024-01-06T12:27:34;95829.44;;;4.85;100.00
57628;BME280;43451;49.060;10.616;2024-01-06T12:30:00;95817.53;;;4.86;100.00
57628;BME280;43451;49.060;10.616;2024-01-06T12:32:26;95818.69;;;4.89;100.00
57628;BME280;43451;49.060;10.616;2024-01-06T12:34:51;95821.72;;;4.80;100.00
57628;BME280;43451;49.060;10.616;2024-01-06T12:37:17;95825.63;;;4.90;100.00
57628;BME280;43451;49.060;10.616;2024-01-06T12:39:43;95819.84;;;4.88;100.00
57628;BME280;43451;49.060;10.616;2024-01-06T12:42:11;95815.63;;;4.94;100.00
57628;BME280;43451;49.060;10.616;2024-01-06T12:44:36;95814.09;;;4.93;100.00
57628;BME280;43451;49.060;10.616;2024-01-06T12:47:04;95811.06;;;4.98;100.00